Whaleyville, Maryland
Current Conditions -  °F | °C
As of 4:53 PM on Tuesday 21 Oct 2014 (Local Time) from KOXB Reporting Station
Few Clouds Few Clouds  
Wind Chill: 67°   Ceiling: Unl
Heat Index: 67°   Visibility: 10mi
Dew Point: 58°   Wind: 6mph
Humidity: 73%   Direction: 200°SSW
Pressure: 29.8"   Gusts: NA
Location:  38.4°N, 75.3°W
Report Text: KOXB 212053Z AUTO 20005KT 10SM FEW060 FEW090 19/14 A2980 RMK AO2 SLP092 T01940144 55003 TSNO
Loading
Personal Weather Stations






























Interactive Weather Map
Tropical Storm Tracking
New forecast layout! Learn more

10-Day Weather Forecast

Advertisements
Track Severe Weather on mobile